createdAt,value
2022-11-24T00:00:06.566Z,100129.81
2022-11-24T00:02:33.039Z,100129.63
2022-11-24T00:04:59.658Z,100125.34
2022-11-24T00:07:26.297Z,100117.19
2022-11-24T00:09:52.761Z,100120.63
2022-11-24T00:12:19.162Z,100128.56
2022-11-24T00:14:46.971Z,100126.03
2022-11-24T00:17:13.518Z,100127.44
2022-11-24T00:19:40.062Z,100133.97
2022-11-24T00:22:06.456Z,100128.34
2022-11-24T00:24:33.240Z,100123.59
2022-11-24T00:26:59.823Z,100136.06
2022-11-24T00:29:26.365Z,100129.97
2022-11-24T00:31:52.822Z,100128.41
2022-11-24T00:34:19.411Z,100137.09
2022-11-24T00:36:45.816Z,100135.91
2022-11-24T00:39:14.378Z,100126.13
2022-11-24T00:41:42.193Z,100128.72
2022-11-24T00:44:08.999Z,100129.09
2022-11-24T00:46:35.972Z,100125.72
2022-11-24T00:49:02.937Z,100122.94
2022-11-24T00:51:30.330Z,100120.00
2022-11-24T00:53:57.657Z,100122.16
2022-11-24T00:56:25.499Z,100113.47
2022-11-24T00:58:52.234Z,100117.88
2022-11-24T01:01:21.992Z,100128.69
2022-11-24T01:03:49.345Z,100129.88
2022-11-24T01:06:18.936Z,100128.47
2022-11-24T01:08:46.225Z,100133.97
2022-11-24T01:11:12.654Z,100138.47
2022-11-24T01:13:40.154Z,100142.66
2022-11-24T01:16:12.762Z,100145.91
2022-11-24T01:18:39.435Z,100149.81
2022-11-24T01:21:10.114Z,100151.47
2022-11-24T01:23:36.855Z,100154.41
2022-11-24T01:26:08.080Z,100152.97
2022-11-24T01:28:34.784Z,100135.47
2022-11-24T01:31:03.677Z,100129.66
2022-11-24T01:33:30.389Z,100126.41
2022-11-24T01:36:00.566Z,100128.13
2022-11-24T01:38:27.622Z,100128.13
2022-11-24T01:41:07.854Z,100144.75
2022-11-24T01:43:34.966Z,100143.28
2022-11-24T01:46:26.763Z,100143.06
2022-11-24T01:49:06.181Z,100142.88
2022-11-24T01:51:36.205Z,100153.53
2022-11-24T01:54:16.009Z,100151.81
2022-11-24T01:56:46.260Z,100154.69
2022-11-24T01:59:15.742Z,100157.09
2022-11-24T02:01:42.287Z,100158.00
2022-11-24T02:04:13.265Z,100168.78
2022-11-24T02:07:14.311Z,100166.28
2022-11-24T02:09:49.140Z,100169.88
2022-11-24T02:12:15.563Z,100171.56
2022-11-24T02:14:44.057Z,100173.00
2022-11-24T02:17:10.645Z,100173.25
2022-11-24T02:19:39.861Z,100175.97
2022-11-24T02:22:22.809Z,100173.41
2022-11-24T02:25:14.378Z,100171.94
2022-11-24T02:27:48.200Z,100167.75
2022-11-24T02:30:18.887Z,100182.41
2022-11-24T02:32:45.361Z,100170.59
2022-11-24T02:35:12.640Z,100177.47
2022-11-24T02:37:39.107Z,100183.97
2022-11-24T02:40:06.525Z,100175.69
2022-11-24T02:42:38.571Z,100190.34
2022-11-24T02:45:05.599Z,100191.13
2022-11-24T02:47:32.033Z,100182.50
2022-11-24T02:49:58.425Z,100182.00
2022-11-24T02:52:24.840Z,100179.91
2022-11-24T02:54:51.311Z,100173.44
2022-11-24T02:57:17.772Z,100164.38
2022-11-24T02:59:44.613Z,100174.72
2022-11-24T03:02:11.018Z,100163.13
2022-11-24T03:04:37.470Z,100167.75
2022-11-24T03:07:03.951Z,100180.63
2022-11-24T03:09:30.491Z,100178.22
2022-11-24T03:11:56.902Z,100181.88
2022-11-24T03:14:23.379Z,100173.59
2022-11-24T03:16:49.777Z,100173.88
2022-11-24T03:19:16.182Z,100174.72
2022-11-24T03:21:42.651Z,100181.47
2022-11-24T03:24:09.078Z,100186.00
2022-11-24T03:26:35.873Z,100199.28
2022-11-24T03:29:02.477Z,100202.94
2022-11-24T03:31:28.992Z,100195.53
2022-11-24T03:33:55.387Z,100201.75
2022-11-24T03:36:21.800Z,100199.19
2022-11-24T03:38:48.274Z,100200.66
2022-11-24T03:41:14.708Z,100202.75
2022-11-24T03:43:44.086Z,100194.59
2022-11-24T03:46:11.898Z,100194.06
2022-11-24T03:48:38.879Z,100195.59
2022-11-24T03:51:05.455Z,100206.31
2022-11-24T03:53:33.536Z,100206.97
2022-11-24T03:56:01.932Z,100207.72
2022-11-24T03:58:29.601Z,100208.47
2022-11-24T04:00:57.020Z,100214.19
2022-11-24T04:03:24.541Z,100226.94
2022-11-24T04:05:51.656Z,100231.13
2022-11-24T04:08:18.243Z,100219.56
2022-11-24T04:10:44.789Z,100229.66
2022-11-24T04:13:14.208Z,100227.44
2022-11-24T04:15:41.717Z,100226.19
2022-11-24T04:18:09.907Z,100225.13
2022-11-24T04:20:36.909Z,100222.69
2022-11-24T04:23:05.061Z,100221.03
2022-11-24T04:25:32.430Z,100216.28
2022-11-24T04:27:58.933Z,100210.06
2022-11-24T04:30:27.359Z,100213.72
2022-11-24T04:32:53.913Z,100220.59
2022-11-24T04:35:21.198Z,100224.66
2022-11-24T04:37:47.719Z,100234.94
2022-11-24T04:40:15.125Z,100233.41
2022-11-24T04:42:41.782Z,100244.41
2022-11-24T04:45:08.932Z,100245.13
2022-11-24T04:47:35.482Z,100252.38
2022-11-24T04:50:02.080Z,100261.91
2022-11-24T04:52:30.435Z,100264.25
2022-11-24T04:54:56.818Z,100268.09
2022-11-24T04:57:25.625Z,100268.53
2022-11-24T04:59:52.952Z,100276.09
2022-11-24T05:02:20.305Z,100277.84
2022-11-24T05:04:47.210Z,100277.19
2022-11-24T05:07:18.740Z,100281.03
2022-11-24T05:10:05.845Z,100281.78
2022-11-24T05:12:32.525Z,100277.91
2022-11-24T05:15:00.732Z,100281.84
2022-11-24T05:17:36.129Z,100283.03
2022-11-24T05:20:03.762Z,100286.00
2022-11-24T05:22:30.230Z,100294.75
2022-11-24T05:24:56.661Z,100295.44
2022-11-24T05:27:23.718Z,100294.16
2022-11-24T05:29:50.188Z,100300.66
2022-11-24T05:32:16.780Z,100300.09
2022-11-24T05:34:43.278Z,100303.84
2022-11-24T05:37:09.717Z,100308.88
2022-11-24T05:39:36.691Z,100310.38
2022-11-24T05:42:25.025Z,100310.69
2022-11-24T05:44:52.179Z,100304.06
2022-11-24T05:47:19.531Z,100306.03
2022-11-24T05:49:46.033Z,100313.94
2022-11-24T05:52:12.682Z,100308.31
2022-11-24T05:54:39.164Z,100316.69
2022-11-24T05:57:05.631Z,100313.84
2022-11-24T05:59:32.178Z,100322.19
2022-11-24T06:01:58.782Z,100319.81
2022-11-24T06:04:25.389Z,100322.28
2022-11-24T06:06:52.170Z,100320.22
2022-11-24T06:09:18.624Z,100320.13
2022-11-24T06:11:46.755Z,100327.41
2022-11-24T06:14:13.142Z,100323.47
2022-11-24T06:16:39.583Z,100332.84
2022-11-24T06:19:06.070Z,100340.66
2022-11-24T06:21:32.497Z,100343.25
2022-11-24T06:23:59.128Z,100347.94
2022-11-24T06:26:25.634Z,100354.25
2022-11-24T06:28:52.071Z,100367.31
2022-11-24T06:31:18.702Z,100365.91
2022-11-24T06:33:45.262Z,100367.91
2022-11-24T06:36:14.353Z,100362.69
2022-11-24T06:38:40.864Z,100365.88
2022-11-24T06:41:11.938Z,100369.25
2022-11-24T06:43:38.582Z,100374.06
2022-11-24T06:46:05.189Z,100373.00
2022-11-24T06:48:32.133Z,100374.09
2022-11-24T06:51:00.597Z,100370.41
2022-11-24T06:53:30.231Z,100371.41
2022-11-24T06:56:00.577Z,100372.25
2022-11-24T06:58:27.013Z,100375.78
2022-11-24T07:00:53.960Z,100374.28
2022-11-24T07:03:20.560Z,100377.09
2022-11-24T07:05:47.146Z,100380.41
2022-11-24T07:08:17.808Z,100390.22
2022-11-24T07:10:44.648Z,100380.06
2022-11-24T07:13:11.099Z,100388.56
2022-11-24T07:15:37.640Z,100385.72
2022-11-24T07:18:04.556Z,100387.31
2022-11-24T07:20:31.368Z,100390.03
2022-11-24T07:22:58.374Z,100396.91
2022-11-24T07:25:27.692Z,100393.81
2022-11-24T07:27:58.868Z,100392.34
2022-11-24T07:30:27.003Z,100401.66
2022-11-24T07:32:59.321Z,100402.13
2022-11-24T07:35:25.799Z,100411.69
2022-11-24T07:37:58.576Z,100402.38
2022-11-24T07:40:26.639Z,100403.44
2022-11-24T07:42:53.898Z,100415.16
2022-11-24T07:45:20.632Z,100420.31
2022-11-24T07:50:28.525Z,100427.69
2022-11-24T07:55:44.054Z,100421.19
2022-11-24T07:58:10.499Z,100423.41
2022-11-24T08:00:36.917Z,100426.44
2022-11-24T08:03:03.402Z,100421.09
2022-11-24T08:05:29.891Z,100420.41
2022-11-24T08:07:56.451Z,100429.34
2022-11-24T08:10:23.245Z,100430.63
2022-11-24T08:12:49.629Z,100424.13
2022-11-24T08:15:16.157Z,100421.31
2022-11-24T08:17:42.561Z,100431.47
2022-11-24T08:20:09.826Z,100424.78
2022-11-24T08:22:36.428Z,100430.31
2022-11-24T08:25:02.935Z,100430.13
2022-11-24T08:27:30.082Z,100439.91
2022-11-24T08:29:56.483Z,100424.69
2022-11-24T08:32:23.130Z,100424.81
2022-11-24T08:34:49.667Z,100436.09
2022-11-24T08:37:16.121Z,100436.66
2022-11-24T08:39:42.582Z,100436.16
2022-11-24T08:42:09.124Z,100439.69
2022-11-24T08:44:35.979Z,100444.97
2022-11-24T08:47:02.876Z,100441.63
2022-11-24T08:49:29.490Z,100441.63
2022-11-24T08:51:57.853Z,100439.53
2022-11-24T08:54:25.621Z,100442.34
2022-11-24T08:56:52.063Z,100443.34
2022-11-24T08:59:18.624Z,100447.16
2022-11-24T09:01:45.126Z,100460.16
2022-11-24T09:04:11.646Z,100460.41
2022-11-24T09:06:38.158Z,100463.81
2022-11-24T09:09:04.561Z,100451.31
2022-11-24T09:11:34.150Z,100464.41
2022-11-24T09:14:01.159Z,100462.31
2022-11-24T09:16:29.156Z,100475.13
2022-11-24T09:19:01.503Z,100476.25
2022-11-24T09:21:29.364Z,100468.13
2022-11-24T09:23:56.227Z,100474.16
2022-11-24T09:26:28.322Z,100473.94
2022-11-24T09:28:56.058Z,100472.03
2022-11-24T09:31:25.536Z,100483.69
2022-11-24T09:33:52.721Z,100480.69
2022-11-24T09:36:20.376Z,100479.00
2022-11-24T09:38:47.240Z,100483.44
2022-11-24T09:41:33.640Z,100483.47
2022-11-24T09:46:40.574Z,100488.44
2022-11-24T09:49:16.557Z,100490.94
2022-11-24T09:51:46.267Z,100489.69
2022-11-24T10:05:18.743Z,100487.19
2022-11-24T10:08:16.449Z,100497.22
2022-11-24T10:10:57.124Z,100488.09
2022-11-24T10:13:46.688Z,100485.34
2022-11-24T10:16:22.160Z,100489.09
2022-11-24T10:19:00.779Z,100486.41
2022-11-24T10:22:04.989Z,100483.41
2022-11-24T10:25:13.586Z,100500.31
2022-11-24T10:27:44.174Z,100502.78
2022-11-24T10:30:15.442Z,100506.56
2022-11-24T10:32:47.708Z,100502.81
2022-11-24T10:38:06.877Z,100512.47
2022-11-24T10:43:11.414Z,100509.38
2022-11-24T10:45:39.446Z,100510.84
2022-11-24T10:48:27.425Z,100500.69
2022-11-24T10:51:06.345Z,100499.22
2022-11-24T10:56:14.425Z,100504.13
2022-11-24T10:58:40.915Z,100511.47
2022-11-24T11:01:13.642Z,100508.88
2022-11-24T11:03:48.883Z,100515.28
2022-11-24T11:06:25.209Z,100510.09
2022-11-24T11:09:17.700Z,100512.84
2022-11-24T11:17:30.503Z,100517.97
2022-11-24T11:20:03.091Z,100520.28
2022-11-24T11:22:37.204Z,100509.84
2022-11-24T11:25:03.645Z,100503.13
2022-11-24T11:27:30.404Z,100508.19
2022-11-24T11:35:50.816Z,100510.56
2022-11-24T11:38:17.711Z,100503.06
2022-11-24T11:40:44.434Z,100500.81
2022-11-24T11:43:27.103Z,100512.09
2022-11-24T11:46:03.809Z,100512.31
2022-11-24T11:48:43.030Z,100507.41
2022-11-24T11:51:25.559Z,100515.88
2022-11-24T11:54:23.056Z,100513.81
2022-11-24T11:57:01.315Z,100512.00
2022-11-24T11:59:38.029Z,100514.53
2022-11-24T12:02:22.860Z,100519.19
2022-11-24T12:04:59.080Z,100522.28
2022-11-24T12:07:46.212Z,100519.56
2022-11-24T12:10:41.998Z,100518.63
2022-11-24T12:13:38.144Z,100516.53
2022-11-24T12:16:34.337Z,100514.66
2022-11-24T12:19:46.459Z,100516.59
2022-11-24T12:22:18.607Z,100519.41
2022-11-24T12:24:56.577Z,100517.78
2022-11-24T12:28:01.893Z,100521.47
2022-11-24T12:30:40.415Z,100527.25
2022-11-24T12:33:26.916Z,100516.56
2022-11-24T12:36:04.408Z,100513.72
2022-11-24T12:38:49.246Z,100509.06
2022-11-24T12:43:59.727Z,100520.50
2022-11-24T12:46:38.381Z,100524.34
2022-11-24T12:49:31.594Z,100524.06
2022-11-24T12:52:24.418Z,100527.47
2022-11-24T12:54:51.031Z,100521.53
2022-11-24T12:57:28.652Z,100527.31
2022-11-24T13:00:14.314Z,100522.88
2022-11-24T13:13:59.653Z,100521.44
2022-11-24T13:16:59.520Z,100531.56
2022-11-24T13:19:17.447Z,100534.44
2022-11-24T13:27:27.627Z,100543.59
2022-11-24T13:35:15.606Z,100550.69
2022-11-24T13:43:02.491Z,100562.19
2022-11-24T13:48:21.909Z,100581.00
2022-11-24T13:50:56.098Z,100581.16
2022-11-24T13:53:34.698Z,100582.69
2022-11-24T13:58:51.248Z,100590.19
2022-11-24T14:06:55.036Z,100596.19
2022-11-24T14:14:56.986Z,100608.41
2022-11-24T14:17:27.539Z,100612.88
2022-11-24T14:19:58.307Z,100616.44
2022-11-24T14:22:41.228Z,100618.06
2022-11-24T14:30:31.597Z,100623.47
2022-11-24T14:35:44.651Z,100624.69
2022-11-24T14:40:54.390Z,100628.41
2022-11-24T14:45:58.384Z,100630.00
2022-11-24T14:48:28.064Z,100631.81
2022-11-24T14:51:16.104Z,100637.34
2022-11-24T14:53:49.004Z,100635.69
2022-11-24T14:56:30.251Z,100643.03
2022-11-24T14:58:57.860Z,100641.81
2022-11-24T15:01:27.081Z,100654.13
2022-11-24T15:07:01.092Z,100648.19
2022-11-24T15:09:39.519Z,100649.94
2022-11-24T15:12:08.686Z,100658.34
2022-11-24T15:14:58.065Z,100655.16
2022-11-24T15:17:28.077Z,100653.81
2022-11-24T15:20:03.100Z,100653.59
2022-11-24T15:22:29.476Z,100657.84
2022-11-24T15:24:55.919Z,100666.19
2022-11-24T15:27:22.320Z,100668.59
2022-11-24T15:29:49.522Z,100670.78
2022-11-24T15:32:16.492Z,100672.34
2022-11-24T15:34:43.072Z,100666.63
2022-11-24T15:37:09.506Z,100676.31
2022-11-24T15:39:36.017Z,100673.44
2022-11-24T15:42:02.500Z,100689.34
2022-11-24T15:44:29.533Z,100696.34
2022-11-24T15:46:56.044Z,100690.31
2022-11-24T15:49:22.463Z,100693.28
2022-11-24T15:51:48.925Z,100697.47
2022-11-24T15:54:18.398Z,100692.44
2022-11-24T15:56:44.868Z,100694.28
2022-11-24T18:01:05.566Z,100748.19
2022-11-24T18:03:32.781Z,100739.56
2022-11-24T18:06:12.250Z,100754.34
2022-11-24T18:08:43.686Z,100750.81
2022-11-24T18:11:24.650Z,100759.78
2022-11-24T18:14:00.146Z,100764.50
2022-11-24T18:16:30.568Z,100766.25
2022-11-24T18:19:14.935Z,100775.13
2022-11-24T18:21:44.964Z,100779.59
2022-11-24T18:24:19.667Z,100782.06
2022-11-24T18:26:51.173Z,100783.53
2022-11-24T18:32:01.499Z,100780.84
2022-11-24T18:34:31.828Z,100783.44
2022-11-24T18:37:07.801Z,100779.34
2022-11-24T18:39:38.060Z,100779.34
2022-11-24T18:42:04.813Z,100786.34
2022-11-24T18:44:33.287Z,100784.78
2022-11-24T18:47:00.029Z,100779.75
2022-11-24T18:49:26.540Z,100790.03
2022-11-24T18:51:53.005Z,100792.03
2022-11-24T18:54:19.560Z,100788.69
2022-11-24T18:56:45.965Z,100794.69
2022-11-24T18:59:12.428Z,100794.97
2022-11-24T19:01:38.989Z,100798.78
2022-11-24T19:04:05.696Z,100789.38
2022-11-24T19:06:35.125Z,100789.16
2022-11-24T19:09:05.512Z,100783.75
2022-11-24T19:11:35.551Z,100779.72
2022-11-24T19:14:06.953Z,100787.84
2022-11-24T19:16:34.355Z,100777.97
2022-11-24T19:19:02.557Z,100780.59
2022-11-24T19:21:34.512Z,100779.06
2022-11-24T19:24:05.471Z,100781.81
2022-11-24T19:26:33.155Z,100782.38
2022-11-24T19:29:00.879Z,100784.38
2022-11-24T19:31:27.463Z,100787.75
2022-11-24T19:33:54.682Z,100786.81
2022-11-24T19:36:22.779Z,100792.53
2022-11-24T19:38:51.349Z,100795.19
2022-11-24T19:41:21.410Z,100799.44
2022-11-24T19:43:48.426Z,100802.41
2022-11-24T19:46:17.576Z,100795.94
2022-11-24T19:48:46.258Z,100792.75
2022-11-24T19:51:15.932Z,100796.88
2022-11-24T19:53:43.434Z,100807.50
2022-11-24T19:56:15.427Z,100814.69
2022-11-24T19:58:42.663Z,100821.69
2022-11-24T20:01:17.736Z,100821.81
2022-11-24T20:03:45.626Z,100827.19
2022-11-24T20:06:14.037Z,100840.56
2022-11-24T20:08:42.284Z,100830.47
2022-11-24T20:11:11.458Z,100836.50
2022-11-24T20:13:40.561Z,100834.19
2022-11-24T20:16:10.940Z,100836.50
2022-11-24T20:18:46.596Z,100843.06
2022-11-24T20:21:16.129Z,100844.41
2022-11-24T20:23:43.610Z,100846.25
2022-11-24T20:26:15.478Z,100847.31
2022-11-24T20:28:42.192Z,100855.97
2022-11-24T20:31:11.810Z,100849.41
2022-11-24T20:33:39.108Z,100853.97
2022-11-24T20:36:08.427Z,100846.16
2022-11-24T20:38:36.638Z,100849.75
2022-11-24T20:41:09.873Z,100849.84
2022-11-24T20:43:37.663Z,100858.84
2022-11-24T20:46:06.063Z,100860.72
2022-11-24T20:48:33.569Z,100863.59
2022-11-24T20:51:05.328Z,100864.59
2022-11-24T20:53:31.803Z,100865.97
2022-11-24T20:56:06.624Z,100861.88
2022-11-24T20:58:34.808Z,100863.16
2022-11-24T21:01:18.409Z,100874.00
2022-11-24T21:03:46.367Z,100867.25
2022-11-24T21:06:14.152Z,100870.06
2022-11-24T21:08:42.038Z,100868.56
2022-11-24T21:11:13.926Z,100865.34
2022-11-24T21:13:44.332Z,100863.13
2022-11-24T21:16:17.811Z,100868.78
2022-11-24T21:18:45.838Z,100871.28
2022-11-24T21:21:13.349Z,100874.22
2022-11-24T21:23:40.139Z,100880.59
2022-11-24T21:26:13.147Z,100874.75
2022-11-24T21:28:42.808Z,100880.44
2022-11-24T21:31:12.525Z,100874.06
2022-11-24T21:33:45.413Z,100879.78
2022-11-24T21:36:14.692Z,100878.09
2022-11-24T21:38:42.769Z,100879.03
2022-11-24T21:41:11.258Z,100871.56
2022-11-24T21:43:38.578Z,100882.16
2022-11-24T21:46:07.616Z,100870.50
2022-11-24T21:48:35.704Z,100884.03
2022-11-24T21:51:07.173Z,100891.78
2022-11-24T21:53:36.380Z,100894.63
2022-11-24T21:56:05.891Z,100894.00
2022-11-24T21:58:33.621Z,100905.06
2022-11-24T22:01:10.424Z,100897.91
2022-11-24T22:03:36.986Z,100901.91
2022-11-24T22:06:03.768Z,100898.19
2022-11-24T22:08:31.643Z,100897.06
2022-11-24T22:11:03.884Z,100899.81
2022-11-24T22:13:30.582Z,100895.13
2022-11-24T22:16:01.880Z,100899.31
2022-11-24T22:18:33.366Z,100896.56
2022-11-24T22:21:00.519Z,100898.97
2022-11-24T22:23:27.048Z,100900.84
2022-11-24T22:25:53.519Z,100903.19
2022-11-24T22:28:19.950Z,100909.25
2022-11-24T22:30:46.545Z,100903.66
2022-11-24T22:33:13.812Z,100905.91
2022-11-24T22:35:40.272Z,100902.47
2022-11-24T22:38:06.765Z,100903.63
2022-11-24T22:40:33.350Z,100913.41
2022-11-24T22:42:59.948Z,100913.41
2022-11-24T22:45:26.499Z,100907.66
2022-11-24T22:47:56.213Z,100904.91
2022-11-24T22:50:22.655Z,100913.38
2022-11-24T22:52:50.022Z,100917.00
2022-11-24T22:55:16.500Z,100907.06
2022-11-24T22:57:47.398Z,100911.72
2022-11-24T23:00:18.258Z,100911.44
2022-11-24T23:02:44.965Z,100915.72
2022-11-24T23:05:11.507Z,100919.78
2022-11-24T23:07:38.033Z,100913.53
2022-11-24T23:10:04.694Z,100924.56
2022-11-24T23:12:31.140Z,100918.09
2022-11-24T23:14:57.587Z,100911.34
2022-11-24T23:17:24.392Z,100918.53
2022-11-24T23:19:50.863Z,100917.28
2022-11-24T23:22:17.301Z,100923.28
2022-11-24T23:24:43.757Z,100915.34
2022-11-24T23:27:10.255Z,100916.22
2022-11-24T23:29:36.753Z,100922.03
2022-11-24T23:32:03.334Z,100919.94
2022-11-24T23:34:29.829Z,100915.69
2022-11-24T23:36:56.418Z,100906.91
2022-11-24T23:39:23.397Z,100915.16
2022-11-24T23:41:49.792Z,100924.63
2022-11-24T23:44:16.219Z,100929.19
2022-11-24T23:46:42.630Z,100923.28
2022-11-24T23:49:09.074Z,100923.75
2022-11-24T23:51:35.569Z,100926.25
2022-11-24T23:54:02.011Z,100933.84
2022-11-24T23:56:33.074Z,100932.06
2022-11-24T23:59:00.916Z,100932.03
